createdAt,value
2019-05-06T00:00:56.547Z,4.93
2019-05-06T00:03:20.744Z,4.73
2019-05-06T00:05:54.243Z,4.60
2019-05-06T00:08:24.788Z,4.20
2019-05-06T00:10:55.338Z,4.73
2019-05-06T00:13:25.974Z,4.67
2019-05-06T00:15:56.497Z,4.40
2019-05-06T00:18:27.141Z,4.80
2019-05-06T00:20:57.753Z,4.50
2019-05-06T00:23:35.359Z,4.40
2019-05-06T00:26:25.562Z,4.60
2019-05-06T00:28:59.370Z,4.23
2019-05-06T00:31:30.320Z,4.60
2019-05-06T00:34:00.883Z,5.20
2019-05-06T00:36:31.568Z,4.50
2019-05-06T00:39:12.355Z,5.10
2019-05-06T00:41:43.447Z,4.57
2019-05-06T00:44:14.377Z,4.80
2019-05-06T00:46:44.912Z,4.90
2019-05-06T00:49:15.479Z,5.20
2019-05-06T00:51:45.929Z,5.47
2019-05-06T00:54:19.917Z,6.00
2019-05-06T00:56:50.476Z,5.93
2019-05-06T00:59:20.958Z,6.00
2019-05-06T01:01:53.747Z,5.40
2019-05-06T01:04:24.516Z,4.70
2019-05-06T01:06:55.199Z,4.90
2019-05-06T01:09:26.342Z,5.13
2019-05-06T01:11:58.886Z,5.07
2019-05-06T01:14:35.839Z,4.90
2019-05-06T01:17:06.336Z,5.60
2019-05-06T01:19:37.069Z,5.43
2019-05-06T01:22:07.598Z,5.80
2019-05-06T01:24:38.046Z,6.13
2019-05-06T01:27:08.589Z,5.93
2019-05-06T01:29:39.198Z,5.23
2019-05-06T01:32:09.936Z,5.40
2019-05-06T01:34:40.398Z,5.27
2019-05-06T01:37:10.958Z,5.87
2019-05-06T01:39:50.904Z,5.00
2019-05-06T01:42:31.180Z,4.80
2019-05-06T01:45:01.726Z,4.97
2019-05-06T01:47:34.426Z,4.93
2019-05-06T01:50:04.964Z,5.30
2019-05-06T01:52:35.559Z,4.70
2019-05-06T01:55:06.699Z,5.07
2019-05-06T01:57:37.242Z,5.07
2019-05-06T02:00:08.990Z,5.43
2019-05-06T02:02:39.727Z,5.03
2019-05-06T02:05:10.362Z,5.30
2019-05-06T02:07:40.999Z,4.53
2019-05-06T02:10:11.531Z,5.40
2019-05-06T02:12:44.231Z,5.37
2019-05-06T02:15:14.646Z,5.10
2019-05-06T02:17:45.356Z,5.03
2019-05-06T02:20:15.959Z,5.27
2019-05-06T02:22:59.069Z,5.57
2019-05-06T02:25:39.194Z,4.87
2019-05-06T02:28:09.689Z,4.83
2019-05-06T02:30:59.272Z,5.23
2019-05-06T02:33:44.798Z,5.07
2019-05-06T02:36:34.506Z,4.40
2019-05-06T02:39:07.124Z,4.67
2019-05-06T02:41:38.143Z,5.10
2019-05-06T02:44:11.035Z,5.20
2019-05-06T02:46:44.053Z,5.57
2019-05-06T02:49:23.726Z,4.83
2019-05-06T02:51:54.407Z,5.30
2019-05-06T02:54:24.812Z,5.20
2019-05-06T02:56:55.466Z,5.40
2019-05-06T02:59:26.067Z,5.00
2019-05-06T03:01:56.853Z,5.27
2019-05-06T03:04:27.338Z,5.30
2019-05-06T03:06:58.004Z,5.37
2019-05-06T03:09:28.609Z,5.13
2019-05-06T03:11:59.149Z,4.50
2019-05-06T03:14:29.713Z,4.80
2019-05-06T03:17:03.277Z,4.33
2019-05-06T03:19:34.275Z,4.07
2019-05-06T03:22:27.742Z,4.47
2019-05-06T03:25:06.828Z,3.97
2019-05-06T03:27:38.017Z,4.13
2019-05-06T03:30:08.917Z,4.60
2019-05-06T03:33:14.429Z,4.53
2019-05-06T03:35:27.356Z,5.87
2019-05-06T03:37:44.232Z,7.23
2019-05-06T03:40:15.204Z,9.20
2019-05-06T03:42:46.169Z,10.40
2019-05-06T03:45:27.220Z,10.03
2019-05-06T03:48:05.916Z,10.03
2019-05-06T03:50:36.712Z,9.00
2019-05-06T03:53:08.433Z,9.07
2019-05-06T03:55:39.257Z,6.77
2019-05-06T03:58:13.492Z,6.07
2019-05-06T04:00:45.233Z,5.10
2019-05-06T04:03:15.802Z,4.80
2019-05-06T04:05:48.146Z,4.60
2019-05-06T04:08:21.376Z,3.87
2019-05-06T04:10:54.288Z,4.30
2019-05-06T04:13:24.809Z,4.63
2019-05-06T04:16:14.720Z,4.40
2019-05-06T04:18:53.832Z,3.87
2019-05-06T04:21:33.191Z,4.13
2019-05-06T04:24:14.822Z,3.53
2019-05-06T04:26:59.025Z,3.50
2019-05-06T04:29:29.739Z,3.87
2019-05-06T04:32:03.466Z,4.10
2019-05-06T04:34:34.196Z,3.60
2019-05-06T04:37:04.807Z,3.80
2019-05-06T04:39:35.364Z,3.80
2019-05-06T04:42:09.266Z,3.67
2019-05-06T04:44:38.520Z,4.00
2019-05-06T04:47:09.648Z,3.57
2019-05-06T04:49:43.637Z,3.63
2019-05-06T04:52:14.066Z,3.53
2019-05-06T04:54:44.781Z,3.93
2019-05-06T04:57:15.520Z,3.63
2019-05-06T04:59:46.293Z,3.53
2019-05-06T05:02:18.202Z,4.30
2019-05-06T05:04:52.639Z,3.80
2019-05-06T05:07:22.574Z,3.60
2019-05-06T05:10:03.486Z,3.50
2019-05-06T05:12:52.889Z,3.23
2019-05-06T05:15:37.845Z,3.70
2019-05-06T05:18:19.134Z,3.10
2019-05-06T05:20:49.671Z,3.30
2019-05-06T05:23:22.812Z,3.00
2019-05-06T05:25:53.020Z,3.23
2019-05-06T05:28:23.600Z,3.07
2019-05-06T05:30:54.213Z,3.30
2019-05-06T05:33:24.970Z,3.00
2019-05-06T05:35:55.561Z,3.23
2019-05-06T05:38:31.901Z,2.90
2019-05-06T05:41:03.052Z,3.70
2019-05-06T05:43:52.991Z,3.37
2019-05-06T05:46:23.525Z,3.13
2019-05-06T05:49:13.411Z,3.30
2019-05-06T05:51:44.180Z,3.50
2019-05-06T05:54:15.159Z,3.67
2019-05-06T05:56:46.111Z,3.47
2019-05-06T05:59:17.055Z,3.80
2019-05-06T06:01:47.564Z,3.20
2019-05-06T06:04:18.543Z,3.33
2019-05-06T06:06:49.131Z,2.80
2019-05-06T06:09:22.320Z,3.47
2019-05-06T06:11:54.681Z,3.33
2019-05-06T06:14:47.096Z,3.77
2019-05-06T06:17:35.862Z,3.70
2019-05-06T06:20:26.269Z,4.00
2019-05-06T06:23:00.432Z,3.73
2019-05-06T06:25:33.407Z,4.33
2019-05-06T06:28:04.872Z,3.70
2019-05-06T06:30:45.928Z,3.70
2019-05-06T06:33:17.679Z,4.03
2019-05-06T06:35:55.429Z,3.47
2019-05-06T06:38:45.275Z,3.97
2019-05-06T06:41:16.132Z,2.57
2019-05-06T06:43:49.118Z,2.93
2019-05-06T06:46:22.522Z,2.90
2019-05-06T06:48:53.158Z,2.73
2019-05-06T06:51:23.752Z,3.03
2019-05-06T06:53:54.258Z,3.00
2019-05-06T06:56:32.962Z,2.90
2019-05-06T06:59:22.891Z,3.00
2019-05-06T07:02:13.713Z,2.63
2019-05-06T07:04:52.692Z,3.07
2019-05-06T07:07:39.529Z,2.93
2019-05-06T07:09:56.987Z,3.37
2019-05-06T07:12:27.717Z,3.50
2019-05-06T07:15:02.248Z,3.60
2019-05-06T07:17:33.863Z,3.00
2019-05-06T07:20:08.183Z,3.00
2019-05-06T07:22:38.742Z,3.60
2019-05-06T07:25:09.510Z,3.37
2019-05-06T07:27:42.030Z,2.93
2019-05-06T07:30:13.328Z,2.97
2019-05-06T07:32:43.893Z,3.10
2019-05-06T07:35:14.560Z,2.87
2019-05-06T07:37:45.212Z,3.07
2019-05-06T07:40:15.947Z,2.90
2019-05-06T07:42:48.945Z,3.00
2019-05-06T07:45:38.385Z,2.90
2019-05-06T07:48:12.841Z,2.40
2019-05-06T07:50:43.885Z,2.37
2019-05-06T07:53:14.505Z,3.33
2019-05-06T07:55:45.059Z,2.93
2019-05-06T07:58:15.779Z,2.47
2019-05-06T08:00:46.455Z,2.70
2019-05-06T08:03:17.030Z,2.60
2019-05-06T08:05:55.742Z,2.37
2019-05-06T08:08:22.855Z,2.80
2019-05-06T08:10:52.779Z,3.30
2019-05-06T08:13:24.148Z,2.67
2019-05-06T08:15:54.860Z,2.73
2019-05-06T08:18:27.592Z,2.20
2019-05-06T08:20:59.913Z,2.43
2019-05-06T08:23:42.829Z,2.70
2019-05-06T08:26:17.715Z,2.83
2019-05-06T08:28:48.016Z,3.37
2019-05-06T08:31:22.365Z,2.83
2019-05-06T08:33:53.010Z,2.80
2019-05-06T08:36:32.988Z,2.40
2019-05-06T08:39:05.583Z,2.60
2019-05-06T08:41:37.247Z,2.17
2019-05-06T08:44:07.974Z,1.77
2019-05-06T08:46:38.682Z,2.00
2019-05-06T08:49:09.392Z,1.67
2019-05-06T08:51:59.110Z,2.10
2019-05-06T08:54:40.625Z,1.90
2019-05-06T08:57:11.913Z,1.67
2019-05-06T08:59:43.102Z,1.40
2019-05-06T09:02:13.972Z,1.50
2019-05-06T09:04:44.909Z,2.30
2019-05-06T09:07:15.503Z,2.00
2019-05-06T09:09:45.978Z,1.50
2019-05-06T09:12:18.202Z,1.47
2019-05-06T09:14:48.811Z,2.00
2019-05-06T09:17:22.645Z,1.77
2019-05-06T09:19:53.555Z,2.03
2019-05-06T09:22:24.362Z,2.03
2019-05-06T09:24:54.962Z,1.90
2019-05-06T09:27:44.518Z,2.20
2019-05-06T09:30:23.596Z,1.90
2019-05-06T09:32:54.209Z,1.80
2019-05-06T09:35:24.811Z,2.23
2019-05-06T09:37:55.499Z,2.33
2019-05-06T09:40:26.441Z,1.97
2019-05-06T09:42:57.177Z,1.80
2019-05-06T09:45:28.950Z,1.80
2019-05-06T09:48:06.224Z,1.80
2019-05-06T09:50:46.898Z,2.20
2019-05-06T09:53:23.539Z,2.00
2019-05-06T09:56:13.390Z,1.93
2019-05-06T09:58:44.773Z,1.97
2019-05-06T10:01:16.519Z,1.87
2019-05-06T10:03:47.104Z,1.93
2019-05-06T10:06:17.842Z,1.90
2019-05-06T10:08:48.581Z,1.90
2019-05-06T10:11:22.331Z,2.07
2019-05-06T10:13:53.102Z,1.60
2019-05-06T10:16:23.921Z,1.97
2019-05-06T10:18:54.838Z,1.43
2019-05-06T10:21:25.571Z,1.30
2019-05-06T10:23:56.292Z,1.27
2019-05-06T10:26:27.968Z,1.50
2019-05-06T10:29:18.369Z,1.60
2019-05-06T10:31:56.813Z,1.63
2019-05-06T10:34:27.617Z,2.63
2019-05-06T10:37:17.493Z,2.00
2019-05-06T10:39:47.149Z,1.33
2019-05-06T10:42:25.081Z,1.20
2019-05-06T10:45:13.106Z,3.20
2019-05-06T10:47:47.129Z,1.40
2019-05-06T10:50:17.929Z,1.30
2019-05-06T10:53:10.258Z,1.10
2019-05-06T10:55:43.328Z,1.20
2019-05-06T10:58:13.751Z,0.80
2019-05-06T11:00:44.548Z,1.20
2019-05-06T11:03:18.021Z,1.20
2019-05-06T11:05:49.060Z,1.33
2019-05-06T11:08:19.644Z,1.50
2019-05-06T11:10:50.335Z,1.50
2019-05-06T11:13:21.116Z,1.50
2019-05-06T11:15:52.783Z,1.30
2019-05-06T11:18:23.990Z,1.60
2019-05-06T11:20:56.228Z,1.23
2019-05-06T11:23:39.125Z,1.50
2019-05-06T11:26:09.734Z,1.07
2019-05-06T11:28:51.857Z,1.20
2019-05-06T11:31:28.728Z,1.20
2019-05-06T11:34:05.830Z,0.83
2019-05-06T11:36:46.102Z,1.20
2019-05-06T11:39:16.728Z,1.30
2019-05-06T11:42:01.661Z,1.17
2019-05-06T11:44:20.153Z,1.07
2019-05-06T11:46:52.314Z,1.23
2019-05-06T11:49:23.466Z,1.20
2019-05-06T11:51:54.178Z,1.20
2019-05-06T11:54:24.917Z,1.00
2019-05-06T11:56:58.419Z,1.03
2019-05-06T11:59:28.220Z,0.97
2019-05-06T12:02:02.563Z,1.30
2019-05-06T12:04:34.040Z,1.10
2019-05-06T12:07:11.217Z,1.20
2019-05-06T12:09:37.487Z,1.10
2019-05-06T12:12:08.082Z,1.20
2019-05-06T12:14:38.888Z,1.23
2019-05-06T12:17:09.565Z,1.23
2019-05-06T12:19:40.219Z,1.07
2019-05-06T12:22:12.605Z,1.20
2019-05-06T12:24:43.285Z,1.00
2019-05-06T12:27:33.024Z,1.30
2019-05-06T12:30:05.359Z,0.90
2019-05-06T12:32:40.297Z,1.50
2019-05-06T12:35:12.488Z,1.12
2019-05-06T12:37:44.890Z,1.43
2019-05-06T12:40:15.739Z,1.00
2019-05-06T12:42:53.221Z,1.10
2019-05-06T12:45:34.680Z,1.20
2019-05-06T12:48:24.425Z,1.17
2019-05-06T12:50:56.780Z,1.17
2019-05-06T12:53:27.406Z,1.20
2019-05-06T12:55:59.170Z,1.10
2019-05-06T12:58:29.719Z,1.23
2019-05-06T13:01:03.811Z,1.40
2019-05-06T13:03:34.887Z,1.20
2019-05-06T13:06:07.985Z,1.30
2019-05-06T13:08:53.929Z,1.10
2019-05-06T13:11:09.900Z,1.00
2019-05-06T13:13:56.171Z,1.30
2019-05-06T13:16:13.013Z,1.03
2019-05-06T13:18:47.676Z,1.00
2019-05-06T13:21:15.963Z,1.20
2019-05-06T13:23:50.443Z,1.00
2019-05-06T13:26:22.257Z,1.13
2019-05-06T13:28:57.678Z,0.90
2019-05-06T13:31:28.402Z,0.80
2019-05-06T13:34:07.588Z,1.00
2019-05-06T13:36:38.675Z,0.97
2019-05-06T13:39:14.667Z,1.02
2019-05-06T13:41:42.296Z,1.07
2019-05-06T13:44:14.689Z,1.12
2019-05-06T13:46:56.537Z,0.93
2019-05-06T13:49:46.298Z,0.98
2019-05-06T13:52:22.656Z,0.98
2019-05-06T13:54:53.128Z,1.03
2019-05-06T13:57:24.026Z,0.70
2019-05-06T13:59:54.760Z,0.97
2019-05-06T14:02:39.333Z,1.03
2019-05-06T14:05:12.143Z,1.10
2019-05-06T14:07:43.967Z,0.90
2019-05-06T14:10:14.764Z,1.30
2019-05-06T14:12:45.400Z,1.10
2019-05-06T14:15:17.496Z,1.30
2019-05-06T14:17:50.034Z,1.30
2019-05-06T14:20:22.018Z,1.20
2019-05-06T14:22:52.969Z,1.10
2019-05-06T14:25:35.110Z,1.20
2019-05-06T14:28:24.863Z,0.90
2019-05-06T14:31:05.557Z,1.00
2019-05-06T14:33:36.161Z,1.20
2019-05-06T14:36:06.814Z,1.20
2019-05-06T14:38:37.429Z,0.93
2019-05-06T14:41:17.814Z,1.05
2019-05-06T14:43:48.589Z,1.50
2019-05-06T14:46:19.236Z,1.00
2019-05-06T14:48:53.269Z,1.10
2019-05-06T14:51:23.047Z,1.30
2019-05-06T14:53:53.645Z,0.90
2019-05-06T14:56:43.162Z,1.20
2019-05-06T14:59:13.715Z,1.30
2019-05-06T15:01:45.658Z,1.10
2019-05-06T15:04:16.600Z,1.17
2019-05-06T15:06:47.346Z,0.78
2019-05-06T15:09:18.629Z,1.33
2019-05-06T15:11:49.382Z,0.90
2019-05-06T15:14:22.542Z,1.37
2019-05-06T15:16:52.933Z,1.23
2019-05-06T15:19:23.831Z,1.30
2019-05-06T15:21:54.524Z,1.23
2019-05-06T15:24:25.293Z,0.90
2019-05-06T15:26:55.879Z,1.17
2019-05-06T15:29:26.503Z,1.43
2019-05-06T15:32:12.988Z,0.97
2019-05-06T15:34:55.841Z,1.23
2019-05-06T15:37:33.972Z,1.00
2019-05-06T15:40:07.447Z,0.90
2019-05-06T15:42:38.202Z,1.00
2019-05-06T15:45:08.974Z,1.10
2019-05-06T15:47:39.599Z,1.67
2019-05-06T15:50:12.739Z,1.70
2019-05-06T15:52:43.632Z,1.40
2019-05-06T15:55:15.511Z,1.40
2019-05-06T15:57:46.130Z,1.83
2019-05-06T16:00:22.583Z,1.70
2019-05-06T16:02:53.167Z,1.70
2019-05-06T16:05:26.367Z,1.57
2019-05-06T16:07:56.450Z,1.50
2019-05-06T16:10:28.632Z,1.67
2019-05-06T16:12:59.099Z,1.80
2019-05-06T16:15:29.659Z,1.50
2019-05-06T16:18:02.254Z,1.90
2019-05-06T16:20:33.263Z,2.17
2019-05-06T16:23:23.300Z,1.90
2019-05-06T16:25:54.005Z,2.00
2019-05-06T16:28:24.682Z,2.23
2019-05-06T16:30:55.345Z,2.13
2019-05-06T16:33:26.015Z,2.43
2019-05-06T16:35:56.659Z,2.33
2019-05-06T16:38:27.308Z,2.50
2019-05-06T16:41:10.291Z,1.67
2019-05-06T16:43:33.688Z,2.00
2019-05-06T16:46:03.483Z,1.93
2019-05-06T16:48:34.064Z,2.37
2019-05-06T16:51:04.984Z,2.00
2019-05-06T16:53:36.898Z,1.83
2019-05-06T16:56:14.028Z,1.80
2019-05-06T16:58:48.391Z,1.87
2019-05-06T17:01:19.099Z,1.60
2019-05-06T17:03:56.277Z,1.53
2019-05-06T17:06:35.746Z,1.90
2019-05-06T17:09:18.353Z,1.70
2019-05-06T17:11:42.684Z,2.07
2019-05-06T17:14:13.668Z,2.00
2019-05-06T17:16:44.346Z,2.40
2019-05-06T17:19:15.148Z,2.13
2019-05-06T17:21:48.443Z,2.20
2019-05-06T17:24:22.006Z,2.17
2019-05-06T17:26:56.031Z,3.00
2019-05-06T17:29:43.711Z,2.77
2019-05-06T17:32:33.643Z,2.50
2019-05-06T17:35:05.382Z,2.60
2019-05-06T17:37:56.513Z,2.57
2019-05-06T17:40:27.273Z,3.20
2019-05-06T17:42:57.776Z,2.67
2019-05-06T17:45:59.378Z,2.80
2019-05-06T17:48:28.279Z,2.63
2019-05-06T17:51:17.897Z,2.93
2019-05-06T17:53:52.264Z,3.07
2019-05-06T17:56:24.841Z,3.00
2019-05-06T17:58:55.596Z,3.13
2019-05-06T18:01:32.672Z,2.93
2019-05-06T18:04:03.981Z,2.70
2019-05-06T18:06:34.823Z,2.70
2019-05-06T18:09:08.914Z,2.80
2019-05-06T18:11:42.425Z,2.73
2019-05-06T18:14:13.427Z,2.10
2019-05-06T18:19:38.130Z,2.90
2019-05-06T18:22:08.697Z,3.37
2019-05-06T18:24:40.220Z,3.50
2019-05-06T18:27:12.898Z,3.20
2019-05-06T18:29:43.557Z,3.07
2019-05-06T18:32:14.233Z,2.90
2019-05-06T18:34:45.130Z,3.27
2019-05-06T18:37:16.506Z,3.30
2019-05-06T18:39:47.930Z,3.23
2019-05-06T18:42:23.851Z,3.20
2019-05-06T18:44:57.853Z,3.10
2019-05-06T18:47:33.047Z,2.60
2019-05-06T18:50:13.457Z,3.20
2019-05-06T18:52:45.048Z,3.60
2019-05-06T18:55:17.070Z,3.90
2019-05-06T18:57:49.286Z,3.20
2019-05-06T19:00:22.252Z,4.00
2019-05-06T19:02:54.649Z,6.03
2019-05-06T19:05:32.505Z,4.07
2019-05-06T19:08:06.673Z,3.00
2019-05-06T19:10:37.714Z,2.97
2019-05-06T19:13:08.878Z,2.83
2019-05-06T19:15:39.954Z,2.67
2019-05-06T19:18:12.905Z,3.50
2019-05-06T19:20:43.506Z,3.40
2019-05-06T19:23:14.395Z,3.60
2019-05-06T19:25:45.053Z,3.93
2019-05-06T19:28:15.864Z,3.93
2019-05-06T19:30:47.069Z,3.73
2019-05-06T19:33:17.872Z,4.00
2019-05-06T19:35:48.730Z,4.13
2019-05-06T19:38:21.744Z,4.27
2019-05-06T19:40:54.182Z,3.87
2019-05-06T19:43:25.265Z,3.87
2019-05-06T19:45:58.355Z,4.43
2019-05-06T19:48:29.721Z,3.90
2019-05-06T19:51:03.069Z,3.70
2019-05-06T19:53:33.954Z,4.20
2019-05-06T19:56:06.654Z,4.67
2019-05-06T19:58:37.333Z,5.03
2019-05-06T20:01:08.684Z,6.90
2019-05-06T20:03:39.253Z,8.53
2019-05-06T20:06:29.408Z,8.60
2019-05-06T20:09:22.067Z,7.40
2019-05-06T20:11:54.471Z,7.27
2019-05-06T20:14:25.369Z,7.13
2019-05-06T20:16:56.082Z,7.93
2019-05-06T20:19:31.112Z,7.70
2019-05-06T20:21:59.103Z,8.47
2019-05-06T20:24:29.664Z,7.90
2019-05-06T20:27:02.217Z,7.63
2019-05-06T20:29:35.209Z,6.90
2019-05-06T20:32:05.063Z,7.43
2019-05-06T20:34:35.704Z,7.60
2019-05-06T20:37:06.326Z,7.13
2019-05-06T20:39:37.016Z,7.10
2019-05-06T20:42:07.588Z,6.70
2019-05-06T20:44:38.079Z,5.00
2019-05-06T20:47:09.162Z,4.97
2019-05-06T20:49:39.900Z,4.90
2019-05-06T20:52:12.283Z,4.80
2019-05-06T20:54:42.848Z,4.80
2019-05-06T20:57:13.353Z,4.40
2019-05-06T20:59:43.863Z,4.53
2019-05-06T21:02:17.190Z,5.03
2019-05-06T21:05:16.444Z,6.07
2019-05-06T21:07:47.123Z,4.67
2019-05-06T21:10:17.797Z,4.50
2019-05-06T21:12:48.423Z,4.83
2019-05-06T21:15:22.736Z,5.60
2019-05-06T21:17:52.728Z,5.43
2019-05-06T21:20:23.298Z,5.10
2019-05-06T21:22:54.775Z,5.80
2019-05-06T21:25:25.437Z,5.57
2019-05-06T21:27:56.198Z,7.17
2019-05-06T21:30:26.617Z,6.30
2019-05-06T21:32:57.191Z,6.87
2019-05-06T21:35:27.839Z,10.27
2019-05-06T21:37:58.937Z,8.00
2019-05-06T21:40:29.408Z,7.70
2019-05-06T21:43:01.893Z,8.40
2019-05-06T21:45:33.136Z,7.93
2019-05-06T21:48:04.401Z,8.53
2019-05-06T21:50:35.117Z,9.07
2019-05-06T21:53:05.597Z,9.07
2019-05-06T21:55:36.123Z,9.27
2019-05-06T21:58:06.593Z,9.17
2019-05-06T22:00:44.461Z,10.13
2019-05-06T22:03:15.430Z,8.40
2019-05-06T22:05:46.000Z,8.40
2019-05-06T22:08:16.498Z,8.33
2019-05-06T22:10:46.979Z,8.77
2019-05-06T22:13:17.548Z,7.47
2019-05-06T22:15:48.036Z,7.40
2019-05-06T22:18:18.578Z,7.70
2019-05-06T22:21:08.076Z,7.30
2019-05-06T22:23:57.597Z,7.43
2019-05-06T22:26:28.796Z,8.37
2019-05-06T22:29:01.875Z,7.40
2019-05-06T22:31:33.025Z,7.17
2019-05-06T22:34:03.905Z,7.60
2019-05-06T22:36:34.413Z,7.03
2019-05-06T22:39:06.558Z,5.70
2019-05-06T22:41:38.680Z,6.00
2019-05-06T22:44:13.649Z,6.10
2019-05-06T22:46:42.461Z,6.67
2019-05-06T22:49:13.406Z,4.43
2019-05-06T22:51:44.123Z,5.67
2019-05-06T22:54:15.163Z,6.20
2019-05-06T22:56:45.849Z,6.23
2019-05-06T22:59:16.442Z,5.30
2019-05-06T23:02:06.037Z,5.73
2019-05-06T23:04:37.393Z,5.73
2019-05-06T23:07:08.051Z,6.50
2019-05-06T23:09:38.574Z,6.07
2019-05-06T23:12:09.109Z,5.93
2019-05-06T23:14:41.521Z,6.20
2019-05-06T23:17:12.697Z,6.43
2019-05-06T23:19:44.369Z,6.40
2019-05-06T23:22:15.172Z,7.60
2019-05-06T23:24:45.727Z,8.10
2019-05-06T23:27:16.416Z,7.47
2019-05-06T23:29:46.867Z,7.50
2019-05-06T23:32:17.406Z,6.77
2019-05-06T23:34:47.912Z,6.10
2019-05-06T23:37:22.512Z,6.27
2019-05-06T23:40:39.639Z,5.87
2019-05-06T23:43:48.569Z,6.27
2019-05-06T23:46:57.522Z,6.33
2019-05-06T23:50:06.427Z,5.80
2019-05-06T23:53:15.449Z,5.87
2019-05-06T23:56:26.155Z,6.40
2019-05-06T23:58:56.532Z,6.47
